Time;durP1;ratioP1;P1;durP2;ratioP2;P2;SDS_P1;SDS_P2;PMS_P1;PMS_P2;Temp;Humidity;BMP_temperature;BMP_pressure;BME280_temperature;BME280_humidity;BME280_pressure;Samples;Min_cycle;Max_cycle;Signal;HPM_P1;HPM_P2
2021/05/24 00:00:46;;;;;;;5.50;2.80;;;;;;;36.25;16.50;94725.13;5116175;28;20047;-68
2021/05/24 00:03:13;;;;;;;5.70;2.45;;;;;;;36.53;16.19;94734.25;5116473;28;20047;-68
2021/05/24 00:05:41;;;;;;;4.20;2.38;;;;;;;37.15;15.93;94735.00;5116286;28;20350;-69
2021/05/24 00:08:08;;;;;;;4.60;3.03;;;;;;;36.87;16.22;94730.66;5116068;28;20051;-69
2021/05/24 00:10:41;;;;;;;3.08;2.55;;;;;;;36.75;16.42;94735.72;5108273;28;20043;-67
2021/05/24 00:13:11;;;;;;;2.92;2.53;;;;;;;37.10;16.21;94730.16;5077747;28;20063;-68
2021/05/24 00:15:41;;;;;;;3.78;2.30;;;;;;;36.79;16.01;94732.91;5095687;28;20040;-67
2021/05/24 00:18:08;;;;;;;3.63;2.30;;;;;;;37.22;15.53;94734.75;5115686;28;20416;-67
2021/05/24 00:20:39;;;;;;;4.53;2.28;;;;;;;36.83;16.11;94738.97;5118613;27;20043;-68
2021/05/24 00:23:07;;;;;;;3.50;2.13;;;;;;;36.49;16.53;94739.81;5136618;27;20043;-68
2021/05/24 00:25:34;;;;;;;4.97;2.60;;;;;;;36.31;16.69;94745.16;5136585;27;20066;-68
2021/05/24 00:28:02;;;;;;;4.15;2.30;;;;;;;37.46;15.42;94745.09;5121446;27;20059;-66
2021/05/24 00:30:33;;;;;;;3.90;2.20;;;;;;;37.15;15.46;94745.16;5115515;28;20043;-69
2021/05/24 00:33:01;;;;;;;4.43;1.98;;;;;;;36.30;16.65;94744.38;5115599;28;20040;-69
2021/05/24 00:35:29;;;;;;;3.92;1.92;;;;;;;36.93;15.79;94772.44;5115645;28;20051;-69
2021/05/24 00:38:16;;;;;;;3.53;1.95;;;;;;;35.89;17.17;94761.72;5100528;28;20369;-64
2021/05/24 00:40:43;;;;;;;4.07;2.30;;;;;;;36.57;16.16;94784.63;5114541;28;20055;-69
2021/05/24 00:43:11;;;;;;;5.47;2.42;;;;;;;36.42;16.13;94783.63;5097661;28;20055;-67
2021/05/24 00:45:39;;;;;;;5.18;2.25;;;;;;;36.44;16.28;94786.69;5115538;28;20043;-69
2021/05/24 00:48:08;;;;;;;4.20;2.28;;;;;;;36.61;16.04;94785.25;5115205;28;20040;-68
2021/05/24 00:50:35;;;;;;;4.50;2.00;;;;;;;36.72;16.23;94793.06;5116449;27;20051;-61
2021/05/24 00:53:03;;;;;;;4.00;2.10;;;;;;;36.85;15.86;94793.00;5115487;28;20043;-69
2021/05/24 00:55:30;;;;;;;2.75;2.10;;;;;;;36.31;16.05;94791.41;5114357;28;20052;-69
2021/05/24 00:57:57;;;;;;;4.57;2.20;;;;;;;37.29;15.25;94799.13;5113834;28;20047;-69
2021/05/24 01:00:29;;;;;;;4.15;2.28;;;;;;;36.19;16.14;94803.09;5115305;28;20047;-62
2021/05/24 01:02:58;;;;;;;4.38;2.38;;;;;;;36.45;15.65;94807.25;5115367;28;20055;-69
2021/05/24 01:05:25;;;;;;;3.95;2.25;;;;;;;37.15;15.54;94811.31;5115241;28;20054;-66
2021/05/24 01:07:53;;;;;;;6.75;2.38;;;;;;;36.89;15.40;94804.50;5114961;28;20366;-69
2021/05/24 01:10:20;;;;;;;4.63;2.10;;;;;;;37.05;15.53;94807.03;5115141;28;20066;-68
2021/05/24 01:13:07;;;;;;;4.70;2.10;;;;;;;36.41;15.86;94810.06;5115227;28;20047;-67
2021/05/24 01:15:37;;;;;;;6.40;2.15;;;;;;;36.82;15.66;94807.50;5115236;28;20048;-68
2021/05/24 01:18:07;;;;;;;3.65;1.95;;;;;;;37.06;15.07;94814.00;5108493;28;20469;-63
2021/05/24 01:20:34;;;;;;;3.33;2.00;;;;;;;36.88;15.20;94813.88;5117013;28;20042;-69
2021/05/24 01:25:34;;;;;;;3.97;2.08;;;;;;;36.43;15.33;94815.06;5114235;28;20389;-68
2021/05/24 01:28:04;;;;;;;4.18;2.05;;;;;;;36.26;15.36;94819.16;5114804;28;20047;-69
2021/05/24 01:30:31;;;;;;;5.78;2.13;;;;;;;36.02;15.24;94822.28;5114862;28;20386;-62
2021/05/24 01:32:59;;;;;;;3.38;1.90;;;;;;;36.20;15.26;94826.38;5114018;28;20361;-69
2021/05/24 01:35:26;;;;;;;5.93;2.20;;;;;;;36.32;14.97;94822.88;5114952;28;20043;-60
2021/05/24 01:37:54;;;;;;;5.47;2.17;;;;;;;36.49;14.64;94826.94;5114730;28;20555;-69
2021/05/24 01:40:22;;;;;;;6.65;2.10;;;;;;;36.41;14.87;94825.66;5114941;28;20043;-68
2021/05/24 01:42:54;;;;;;;7.45;2.25;;;;;;;36.04;15.25;94817.16;5114669;28;20058;-69
2021/05/24 01:45:21;;;;;;;5.72;2.55;;;;;;;35.82;15.15;94828.00;5115159;28;20469;-69
2021/05/24 01:47:49;;;;;;;6.15;2.40;;;;;;;36.05;15.10;94832.28;5118742;28;20044;-69
2021/05/24 01:50:16;;;;;;;5.40;2.13;;;;;;;36.08;15.09;94830.66;5119181;27;20054;-68
2021/05/24 01:52:44;;;;;;;8.00;2.55;;;;;;;36.41;14.56;94836.53;5121549;27;20074;-68
2021/05/24 01:55:12;;;;;;;6.05;1.85;;;;;;;36.60;14.41;94843.66;5118239;28;20066;-69
2021/05/24 01:57:39;;;;;;;7.53;2.28;;;;;;;36.43;14.75;94847.75;5118348;28;20492;-68
2021/05/24 02:00:13;;;;;;;5.78;2.35;;;;;;;36.91;14.48;94857.34;5118899;28;20051;-70
2021/05/24 02:02:44;;;;;;;5.78;2.33;;;;;;;36.31;14.69;94856.72;5118499;28;20054;-68
2021/05/24 02:05:13;;;;;;;8.80;2.38;;;;;;;36.91;14.67;94864.75;5113833;28;20048;-64
2021/05/24 02:07:41;;;;;;;7.47;2.17;;;;;;;36.15;15.10;94855.66;5109280;28;20043;-69
2021/05/24 02:10:10;;;;;;;5.30;2.08;;;;;;;36.94;14.37;94861.13;5118518;28;20362;-69
2021/05/24 02:12:37;;;;;;;6.38;2.13;;;;;;;36.67;14.59;94859.72;5118066;28;20059;-69
2021/05/24 02:15:07;;;;;;;6.20;2.25;;;;;;;36.52;14.87;94864.16;5105645;28;20051;-65
2021/05/24 02:17:34;;;;;;;7.00;2.30;;;;;;;36.25;15.07;94866.63;5119253;27;20048;-69
2021/05/24 02:20:03;;;;;;;6.03;2.20;;;;;;;36.60;14.85;94870.88;5118581;28;20047;-69
2021/05/24 02:22:30;;;;;;;4.70;2.08;;;;;;;36.68;14.72;94872.13;5122731;27;20059;-61
2021/05/24 02:24:58;;;;;;;4.90;2.40;;;;;;;36.89;14.72;94878.81;5118361;28;20058;-68
2021/05/24 02:27:25;;;;;;;4.88;2.28;;;;;;;36.55;14.98;94885.06;5118412;28;20055;-66
2021/05/24 02:29:52;;;;;;;9.98;2.35;;;;;;;36.53;15.35;94890.19;5118527;28;20048;-70
2021/05/24 02:32:19;;;;;;;6.00;2.50;;;;;;;36.80;15.11;94899.78;5118317;28;20051;-67
2021/05/24 02:34:46;;;;;;;4.10;2.00;;;;;;;36.37;15.93;94907.44;5118192;28;20059;-69
2021/05/24 02:37:14;;;;;;;4.50;1.90;;;;;;;36.47;15.83;94921.91;5117604;28;20054;-69
2021/05/24 02:39:41;;;;;;;6.85;2.35;;;;;;;35.75;16.25;94903.56;5118091;28;20043;-69
2021/05/24 02:42:08;;;;;;;6.95;2.33;;;;;;;36.51;15.46;94906.19;5117967;28;20055;-68
2021/05/24 02:44:35;;;;;;;5.55;2.20;;;;;;;35.73;16.38;94919.56;5117794;28;20051;-64
2021/05/24 02:47:02;;;;;;;4.55;1.88;;;;;;;36.35;15.65;94909.06;5123553;27;20478;-63
2021/05/24 02:49:29;;;;;;;8.45;2.47;;;;;;;36.08;15.88;94912.25;5097518;28;20055;-69
2021/05/24 02:51:57;;;;;;;6.30;2.58;;;;;;;36.11;16.04;94922.28;5126297;27;20054;-68
2021/05/24 02:54:24;;;;;;;4.55;2.17;;;;;;;35.78;16.25;94932.59;5121385;27;20389;-69
2021/05/24 02:56:51;;;;;;;7.35;2.08;;;;;;;35.62;16.72;94938.91;5116814;28;20055;-68
2021/05/24 02:59:18;;;;;;;6.82;2.25;;;;;;;36.05;16.46;94935.66;5121053;27;20047;-67
2021/05/24 03:01:45;;;;;;;6.30;2.20;;;;;;;34.47;17.75;94940.47;5131934;27;20043;-61
2021/05/24 03:04:13;;;;;;;10.82;2.70;;;;;;;34.96;17.63;94940.41;5136877;27;20047;-64
2021/05/24 03:06:40;;;;;;;6.65;2.45;;;;;;;34.26;18.33;94943.69;5104811;27;20048;-64
2021/05/24 03:09:07;;;;;;;8.27;2.35;;;;;;;34.11;18.61;94946.00;5109550;28;20055;-64
2021/05/24 03:11:35;;;;;;;4.97;1.92;;;;;;;33.54;19.48;94943.78;5096261;28;20044;-63
2021/05/24 03:14:02;;;;;;;5.82;1.90;;;;;;;33.76;19.00;94944.06;5096385;28;20048;-65
2021/05/24 03:16:29;;;;;;;9.35;2.15;;;;;;;34.15;18.62;94951.34;5109559;27;20050;-64
2021/05/24 03:18:56;;;;;;;7.47;2.28;;;;;;;33.57;19.48;94946.44;5117163;27;20050;-62
2021/05/24 03:21:23;;;;;;;11.68;2.65;;;;;;;33.87;19.16;94950.06;5126825;27;20051;-64
2021/05/24 03:23:51;;;;;;;7.55;2.33;;;;;;;33.50;19.23;94954.69;5114654;27;20367;-63
2021/05/24 03:26:18;;;;;;;9.32;2.30;;;;;;;33.75;18.97;94953.38;5097013;28;20055;-62
2021/05/24 03:28:45;;;;;;;7.85;2.22;;;;;;;33.09;19.72;94953.19;5114092;28;20386;-63
2021/05/24 03:31:12;;;;;;;6.20;2.10;;;;;;;33.74;19.32;94960.75;5116932;28;20043;-63
2021/05/24 03:33:40;;;;;;;4.70;2.10;;;;;;;33.45;19.45;94967.97;5098888;28;20044;-64
2021/05/24 03:36:08;;;;;;;9.10;2.38;;;;;;;34.18;18.74;94975.66;5098945;28;20047;-61
2021/05/24 03:38:36;;;;;;;4.15;1.90;;;;;;;33.63;19.70;94973.78;5116454;28;20047;-64
2021/05/24 03:41:04;;;;;;;6.72;2.25;;;;;;;34.42;18.65;94978.25;5116662;28;20058;-67
2021/05/24 03:43:32;;;;;;;5.57;1.95;;;;;;;33.71;19.31;94978.63;5098832;28;20055;-60
2021/05/24 03:45:59;;;;;;;6.93;2.33;;;;;;;33.83;19.94;94988.09;5118956;27;20532;-61
2021/05/24 03:48:26;;;;;;;6.35;2.20;;;;;;;33.59;19.71;94992.09;5121867;27;20054;-66
2021/05/24 03:50:53;;;;;;;5.30;1.90;;;;;;;33.78;19.21;94995.91;5121977;27;20043;-64
2021/05/24 03:53:20;;;;;;;4.43;2.17;;;;;;;34.28;19.28;95001.78;5135569;27;20047;-62
2021/05/24 03:55:48;;;;;;;9.10;2.20;;;;;;;33.73;19.32;95002.59;5116511;28;20050;-64
2021/05/24 03:58:15;;;;;;;6.50;2.50;;;;;;;34.15;19.05;94998.22;5116298;28;20044;-60
2021/05/24 04:00:42;;;;;;;5.82;2.20;;;;;;;33.90;19.54;94998.78;5092829;28;20040;-62
2021/05/24 04:03:10;;;;;;;7.28;2.30;;;;;;;33.04;20.32;95010.53;5075605;28;20052;-65
2021/05/24 04:05:39;;;;;;;5.50;1.95;;;;;;;33.42;20.01;95018.34;5075635;28;20049;-62
2021/05/24 04:08:08;;;;;;;3.80;2.10;;;;;;;34.07;19.49;95013.13;5085788;28;20048;-69
2021/05/24 04:10:46;;;;;;;5.53;2.20;;;;;;;33.87;20.03;95002.34;5092499;28;20339;-61
2021/05/24 04:13:13;;;;;;;11.70;2.35;;;;;;;33.75;20.02;95007.59;5075617;28;20051;-61
2021/05/24 04:15:43;;;;;;;4.35;1.75;;;;;;;33.76;20.13;95017.25;5075292;28;20048;-64
2021/05/24 04:18:15;;;;;;;4.97;1.88;;;;;;;33.34;20.18;95011.56;5104176;28;20051;-68
2021/05/24 04:20:43;;;;;;;;;;;;;;;33.61;20.05;95020.28;5083211;28;20044;-69
2021/05/24 04:23:10;;;;;;;6.20;1.85;;;;;;;33.69;19.76;95027.09;5116007;28;19916;-67
2021/05/24 04:25:38;;;;;;;4.38;1.58;;;;;;;34.96;18.74;95038.16;5098540;28;20048;-60
2021/05/24 04:28:05;;;;;;;5.13;1.65;;;;;;;33.99;19.84;95033.44;5094455;28;20047;-53
2021/05/24 04:30:32;;;;;;;9.07;2.08;;;;;;;34.09;20.11;95043.28;5094920;28;20040;-57
2021/05/24 04:32:59;;;;;;;6.22;1.85;;;;;;;34.91;19.02;95039.47;5085643;28;20052;-57
2021/05/24 04:35:26;;;;;;;3.20;1.70;;;;;;;34.35;19.89;95038.09;5075366;28;20047;-66
2021/05/24 04:37:54;;;;;;;6.75;1.80;;;;;;;34.70;19.22;95048.09;5091376;28;20047;-65
2021/05/24 04:40:21;;;;;;;5.93;1.95;;;;;;;35.27;18.95;95051.34;5114099;28;20047;-77
2021/05/24 04:42:48;;;;;;;3.58;1.60;;;;;;;34.73;19.27;95062.78;5091082;28;20078;-71
2021/05/24 04:45:16;;;;;;;11.13;1.80;;;;;;;35.40;18.75;95071.22;5092475;28;20051;-63
2021/05/24 04:47:44;;;;;;;4.68;2.03;;;;;;;35.51;18.56;95061.56;5111585;28;20044;-55
2021/05/24 04:50:11;;;;;;;6.63;2.00;;;;;;;35.11;18.78;95087.44;5114962;28;20054;-66
2021/05/24 04:52:39;;;;;;;4.43;1.52;;;;;;;35.81;18.19;95086.75;5115402;28;20054;-60
2021/05/24 04:55:07;;;;;;;4.25;1.50;;;;;;;36.05;17.96;95082.56;5097340;28;20082;-56
2021/05/24 04:57:35;;;;;;;6.15;1.48;;;;;;;35.59;18.48;95081.16;5115163;28;20461;-65
2021/05/24 05:00:05;;;;;;;3.33;1.42;;;;;;;35.57;18.39;95085.50;5114955;28;20054;-66
2021/05/24 05:02:32;;;;;;;4.20;1.58;;;;;;;36.00;17.85;95083.13;5114639;28;20047;-66
2021/05/24 05:04:59;;;;;;;2.65;1.35;;;;;;;35.24;18.56;95086.31;5097345;28;20121;-57
2021/05/24 05:07:27;;;;;;;6.25;1.67;;;;;;;34.90;18.77;95089.53;5114787;28;20438;-59
2021/05/24 05:09:54;;;;;;;8.02;1.75;;;;;;;35.72;18.18;95097.50;5093015;28;20511;-66
2021/05/24 05:12:21;;;;;;;3.83;1.48;;;;;;;35.62;18.23;95101.28;5115246;28;20051;-57
2021/05/24 05:14:49;;;;;;;4.40;1.60;;;;;;;35.48;18.52;95110.59;5115251;28;20051;-56
2021/05/24 05:17:16;;;;;;;3.92;1.30;;;;;;;35.12;19.29;95116.91;5114369;28;20039;-66
2021/05/24 05:19:43;;;;;;;2.88;1.30;;;;;;;35.75;18.04;95113.72;5114572;28;20047;-69
2021/05/24 05:22:10;;;;;;;2.47;1.70;;;;;;;35.93;18.48;95118.69;5114882;28;20082;-59
2021/05/24 05:24:38;;;;;;;6.07;1.50;;;;;;;35.70;18.75;95124.38;5091404;28;20056;-60
2021/05/24 05:27:05;;;;;;;2.22;1.35;;;;;;;35.84;18.48;95126.72;5074512;28;20044;-56
2021/05/24 05:29:32;;;;;;;3.30;1.48;;;;;;;35.12;19.47;95121.56;5084096;28;20044;-66
2021/05/24 05:32:00;;;;;;;3.28;1.50;;;;;;;35.14;19.21;95127.38;5094444;28;20055;-58
2021/05/24 05:34:27;;;;;;;5.75;1.40;;;;;;;35.19;19.11;95130.31;5115053;28;20039;-56
2021/05/24 05:36:54;;;;;;;3.45;1.10;;;;;;;35.47;19.00;95138.97;5114948;28;20042;-59
2021/05/24 05:39:21;;;;;;;5.35;1.70;;;;;;;35.28;19.08;95146.00;5114395;28;20074;-61
2021/05/24 05:41:48;;;;;;;3.05;1.45;;;;;;;34.91;19.72;95145.38;5114736;28;20044;-64
2021/05/24 05:44:16;;;;;;;2.95;1.20;;;;;;;35.74;19.18;95138.63;5114912;28;20047;-59
2021/05/24 05:46:43;;;;;;;3.97;1.50;;;;;;;35.71;18.95;95147.66;5114529;28;20050;-69
2021/05/24 05:49:10;;;;;;;6.70;1.55;;;;;;;35.33;18.96;95128.41;5097522;28;20442;-64
2021/05/24 05:51:37;;;;;;;4.03;1.30;;;;;;;35.63;19.50;95143.56;5106037;28;20405;-63
2021/05/24 05:54:05;;;;;;;3.30;1.45;;;;;;;34.58;21.07;95160.84;5114782;28;20047;-62
2021/05/24 05:56:32;;;;;;;3.92;1.38;;;;;;;34.86;20.19;95159.44;5079050;28;20056;-68
2021/05/24 05:58:59;;;;;;;7.05;1.60;;;;;;;33.95;20.88;95165.66;5088937;28;20043;-69
2021/05/24 06:01:26;;;;;;;2.85;1.30;;;;;;;34.02;21.01;95162.78;5093394;28;20047;-68
2021/05/24 06:03:53;;;;;;;4.53;1.60;;;;;;;33.17;21.55;95156.94;5074508;28;20052;-65
2021/05/24 06:06:21;;;;;;;5.13;1.52;;;;;;;34.02;20.71;95157.38;5074298;28;20041;-69
2021/05/24 06:08:48;;;;;;;3.30;1.30;;;;;;;34.84;19.65;95145.53;5086700;28;20051;-63
2021/05/24 06:11:15;;;;;;;3.30;1.08;;;;;;;35.25;19.67;95136.00;5075474;28;20044;-67
2021/05/24 06:13:42;;;;;;;3.50;1.60;;;;;;;34.15;20.84;95139.28;5074103;28;20037;-68
2021/05/24 06:16:09;;;;;;;4.10;1.63;;;;;;;34.69;19.98;95133.47;5087487;28;20050;-69
2021/05/24 06:18:36;;;;;;;5.90;1.50;;;;;;;35.66;18.64;95142.75;5105802;28;20046;-69
2021/05/24 06:21:04;;;;;;;2.10;1.20;;;;;;;34.79;20.06;95148.72;5095622;28;20043;-68
2021/05/24 06:23:31;;;;;;;2.38;1.10;;;;;;;34.41;20.35;95150.38;5079622;28;20090;-64
2021/05/24 06:25:58;;;;;;;7.00;1.30;;;;;;;34.32;19.86;95142.78;5114443;28;20043;-63
2021/05/24 06:28:25;;;;;;;4.07;1.25;;;;;;;35.22;19.05;95136.84;5096508;28;20370;-69
2021/05/24 06:30:52;;;;;;;5.13;1.17;;;;;;;34.09;20.66;95140.94;5093217;28;20056;-60
2021/05/24 06:33:19;;;;;;;3.38;1.20;;;;;;;34.30;20.61;95134.28;5077215;28;20478;-69
2021/05/24 06:35:46;;;;;;;3.30;1.23;;;;;;;35.00;19.90;95135.84;5077427;28;20044;-69
2021/05/24 06:38:14;;;;;;;4.05;1.27;;;;;;;35.46;19.62;95146.34;5084676;28;20046;-56
2021/05/24 06:40:41;;;;;;;5.03;1.40;;;;;;;34.97;19.49;95139.44;5097557;28;20362;-67
2021/05/24 06:43:08;;;;;;;6.45;1.55;;;;;;;35.87;18.75;95135.97;5096806;28;20048;-56
2021/05/24 06:45:35;;;;;;;3.78;1.25;;;;;;;35.87;18.82;95138.69;5097729;28;20047;-70
2021/05/24 06:48:03;;;;;;;4.03;1.58;;;;;;;35.38;19.34;95136.84;5103004;28;20056;-59
2021/05/24 06:50:30;;;;;;;3.35;1.10;;;;;;;36.31;18.57;95129.66;5098750;28;20044;-59
2021/05/24 06:52:57;;;;;;;3.03;1.38;;;;;;;36.73;18.28;95149.38;5095694;28;20050;-68
2021/05/24 06:55:24;;;;;;;2.55;1.10;;;;;;;36.20;18.87;95137.34;5077148;28;20044;-61
2021/05/24 06:57:51;;;;;;;7.40;1.80;;;;;;;37.06;17.91;95140.97;5088444;28;20051;-57
2021/05/24 07:00:19;;;;;;;4.82;1.30;;;;;;;37.13;18.20;95140.72;5097364;28;20062;-70
2021/05/24 07:02:47;;;;;;;4.03;1.52;;;;;;;37.43;17.64;95125.72;5081419;28;20048;-70
2021/05/24 07:05:15;;;;;;;4.80;1.50;;;;;;;37.57;17.65;95113.56;5076931;28;20063;-67
2021/05/24 07:07:42;;;;;;;4.75;1.35;;;;;;;37.41;18.25;95117.22;5085431;28;20430;-70
2021/05/24 07:10:10;;;;;;;6.00;1.52;;;;;;;37.60;18.20;95120.84;5076809;28;20051;-65
2021/05/24 07:12:38;;;;;;;4.85;1.50;;;;;;;37.31;18.49;95119.13;5093119;28;20122;-64
2021/05/24 07:15:06;;;;;;;2.38;1.30;;;;;;;36.84;18.44;95129.22;5076760;28;20447;-56
2021/05/24 07:17:33;;;;;;;2.70;1.10;;;;;;;37.40;17.99;95128.56;5099218;28;20040;-69
2021/05/24 07:20:03;;;;;;;6.47;1.42;;;;;;;36.58;18.89;95123.78;5096662;28;20063;-72
2021/05/24 07:22:30;;;;;;;7.07;1.65;;;;;;;36.66;18.71;95119.63;5115487;28;20050;-68
2021/05/24 07:24:57;;;;;;;5.90;1.50;;;;;;;36.87;18.79;95123.66;5117203;28;20477;-71
2021/05/24 07:27:25;;;;;;;2.42;1.33;;;;;;;37.18;17.97;95120.31;5116882;28;20048;-65
2021/05/24 07:29:52;;;;;;;3.58;1.30;;;;;;;37.29;17.50;95135.16;5116952;28;20043;-70
2021/05/24 07:32:19;;;;;;;4.55;1.35;;;;;;;37.50;17.09;95128.22;5116942;28;20051;-63
2021/05/24 07:34:47;;;;;;;2.08;1.30;;;;;;;37.45;17.41;95134.22;5081450;28;20078;-60
2021/05/24 07:37:15;;;;;;;2.28;1.23;;;;;;;37.42;17.75;95137.06;5081207;28;20051;-61
2021/05/24 07:39:42;;;;;;;3.80;1.70;;;;;;;37.53;17.69;95134.75;5096277;28;20066;-63
2021/05/24 07:42:10;;;;;;;2.92;1.27;;;;;;;37.23;18.34;95128.72;5096227;28;20048;-61
2021/05/24 07:44:37;;;;;;;4.57;1.60;;;;;;;37.51;17.82;95137.16;5096614;28;20052;-73
2021/05/24 07:47:07;;;;;;;3.45;1.20;;;;;;;37.49;17.76;95125.94;5104175;28;20044;-65
2021/05/24 07:49:34;;;;;;;3.95;1.60;;;;;;;37.84;16.91;95138.34;5096640;28;20063;-63
2021/05/24 07:52:01;;;;;;;2.33;1.40;;;;;;;38.19;17.07;95135.53;5100450;28;20040;-71
2021/05/24 07:54:29;;;;;;;3.33;1.30;;;;;;;37.94;17.59;95133.69;5096237;28;20052;-71
2021/05/24 07:56:56;;;;;;;5.90;1.55;;;;;;;36.95;18.09;95129.63;5096060;28;20050;-71
2021/05/24 07:59:23;;;;;;;4.15;1.58;;;;;;;38.05;17.24;95131.34;5095638;28;20036;-71
2021/05/24 08:01:50;;;;;;;15.88;14.23;;;;;;;38.28;16.92;95127.41;5095735;28;20351;-64
2021/05/24 08:04:17;;;;;;;12.73;11.50;;;;;;;37.88;18.09;95130.78;5095002;28;20439;-72
2021/05/24 08:06:44;;;;;;;4.63;2.40;;;;;;;38.14;17.20;95133.34;5095293;28;20044;-63
2021/05/24 08:09:12;;;;;;;4.97;1.77;;;;;;;37.99;17.34;95135.84;5094935;28;20048;-72
2021/05/24 08:11:39;;;;;;;4.10;1.77;;;;;;;37.47;17.40;95134.53;5095692;28;20324;-61
2021/05/24 08:14:07;;;;;;;5.90;2.03;;;;;;;37.59;17.41;95138.44;5095951;28;20043;-70
2021/05/24 08:16:34;;;;;;;4.70;1.55;;;;;;;38.19;16.62;95138.25;5102973;28;20043;-60
2021/05/24 08:19:01;;;;;;;3.83;1.60;;;;;;;38.09;17.15;95136.66;5096742;28;20044;-71
2021/05/24 08:21:28;;;;;;;4.07;1.58;;;;;;;37.86;17.21;95146.06;5101819;28;20039;-71
2021/05/24 08:23:55;;;;;;;3.10;1.50;;;;;;;38.22;16.64;95134.63;5075152;28;20063;-63
2021/05/24 08:26:22;;;;;;;2.92;1.40;;;;;;;37.97;17.40;95128.09;5075416;28;20052;-61
2021/05/24 08:28:49;;;;;;;3.72;1.67;;;;;;;37.73;17.04;95131.72;5091653;28;20048;-72
2021/05/24 08:31:17;;;;;;;4.88;1.83;;;;;;;38.02;16.74;95143.16;5084609;28;20394;-68
2021/05/24 08:33:44;;;;;;;4.15;1.85;;;;;;;38.05;16.74;95130.59;5075178;28;20045;-70
2021/05/24 08:36:11;;;;;;;3.63;1.63;;;;;;;37.91;17.18;95116.25;5075278;28;20055;-71
2021/05/24 08:38:38;;;;;;;3.58;1.50;;;;;;;38.77;16.88;95121.97;5089680;28;20354;-71
2021/05/24 08:41:08;;;;;;;3.22;1.73;;;;;;;39.05;17.00;95108.41;5097689;28;20397;-60
2021/05/24 08:43:37;;;;;;;5.85;2.05;;;;;;;38.85;16.88;95101.38;5115856;28;20048;-62
2021/05/24 08:46:05;;;;;;;58.33;52.47;;;;;;;39.34;15.95;95094.31;5115086;28;20043;-70
2021/05/24 08:48:33;;;;;;;12.98;9.57;;;;;;;39.14;15.33;95097.50;5104426;28;20055;-66
2021/05/24 08:51:01;;;;;;;8.98;6.43;;;;;;;39.01;15.97;95092.13;5115121;28;20052;-72
2021/05/24 08:53:29;;;;;;;8.60;4.70;;;;;;;38.94;15.43;95099.88;5115471;28;20050;-72
2021/05/24 08:55:57;;;;;;;5.30;3.35;;;;;;;39.20;15.14;95100.38;5115107;28;20058;-61
2021/05/24 08:58:25;;;;;;;6.43;3.10;;;;;;;39.37;14.88;95110.56;5093601;28;20044;-71
2021/05/24 09:00:52;;;;;;;4.53;2.65;;;;;;;39.19;15.04;95087.94;5094968;28;20047;-64
2021/05/24 09:03:26;;;;;;;5.55;2.58;;;;;;;39.89;14.29;95080.59;5095106;28;20051;-64
2021/05/24 09:05:54;;;;;;;5.93;2.72;;;;;;;39.16;16.01;95079.44;5115366;28;20816;-63
2021/05/24 09:08:34;;;;;;;3.80;2.15;;;;;;;39.32;15.61;95063.94;5114680;28;20055;-62
2021/05/24 09:11:02;;;;;;;5.63;2.20;;;;;;;39.08;16.10;95063.78;5115154;28;20047;-58
2021/05/24 09:13:32;;;;;;;6.25;2.05;;;;;;;39.17;16.04;95064.53;5115293;28;20058;-60
2021/05/24 09:15:59;;;;;;;6.88;2.10;;;;;;;39.27;15.71;95067.25;5114669;28;20044;-57
2021/05/24 09:18:27;;;;;;;8.95;2.50;;;;;;;39.27;15.17;95061.78;5098777;28;20052;-61
2021/05/24 09:20:54;;;;;;;4.03;1.95;;;;;;;38.75;15.69;95066.28;5114667;28;20039;-59
2021/05/24 09:23:22;;;;;;;54.97;42.90;;;;;;;38.98;15.65;95071.16;5114855;28;20044;-57
2021/05/24 09:25:51;;;;;;;23.77;21.25;;;;;;;38.65;16.36;95076.44;5115067;28;20040;-60
2021/05/24 09:28:39;;;;;;;11.25;8.02;;;;;;;38.79;15.80;95072.38;5086068;28;20047;-58
2021/05/24 09:31:17;;;;;;;18.30;14.02;;;;;;;38.68;15.41;95072.03;5114944;28;20051;-60
2021/05/24 09:33:48;;;;;;;8.85;6.45;;;;;;;38.98;16.23;95060.25;5114925;28;20048;-59
2021/05/24 09:36:15;;;;;;;7.80;3.63;;;;;;;39.33;14.83;95057.25;5115003;28;20047;-58
2021/05/24 09:38:46;;;;;;;7.72;2.90;;;;;;;39.37;14.95;95057.84;5114485;28;20051;-59
2021/05/24 09:41:15;;;;;;;7.72;2.88;;;;;;;39.50;15.27;95060.41;5096805;28;20055;-57
2021/05/24 09:43:45;;;;;;;7.28;2.83;;;;;;;39.34;14.55;95058.78;5113895;28;20063;-65
2021/05/24 09:46:21;;;;;;;6.13;2.58;;;;;;;39.16;15.02;95052.09;5114608;28;20044;-58
2021/05/24 09:48:53;;;;;;;4.03;2.38;;;;;;;39.85;13.74;95055.38;5100083;28;20434;-59
2021/05/24 09:51:23;;;;;;;6.18;2.50;;;;;;;39.76;15.62;95054.16;5092702;28;20370;-65
2021/05/24 09:54:12;;;;;;;7.35;3.15;;;;;;;39.39;15.64;95052.69;5114692;28;20362;-63
2021/05/24 09:56:43;;;;;;;6.10;2.50;;;;;;;40.18;15.12;95058.94;5089931;28;20051;-62
2021/05/24 09:59:15;;;;;;;5.40;2.47;;;;;;;39.91;14.63;95048.06;5107237;28;20040;-60
2021/05/24 10:01:50;;;;;;;7.35;2.28;;;;;;;40.40;14.56;95056.00;5074020;28;20055;-62
2021/05/24 10:04:22;;;;;;;8.55;2.65;;;;;;;39.46;14.47;95053.13;5074174;28;20052;-61
2021/05/24 10:06:50;;;;;;;5.50;2.10;;;;;;;39.72;13.90;95037.16;5081432;28;20044;-67
2021/05/24 10:09:19;;;;;;;3.45;1.98;;;;;;;40.06;13.98;95038.00;5098232;28;20048;-63
2021/05/24 10:11:48;;;;;;;5.85;2.13;;;;;;;40.20;14.03;95040.06;5098066;28;20044;-72
2021/05/24 10:14:18;;;;;;;5.78;2.60;;;;;;;39.60;13.46;95040.84;5098195;28;20070;-62
2021/05/24 10:16:48;;;;;;;8.50;2.38;;;;;;;39.85;13.68;95034.25;5106288;28;20044;-63
2021/05/24 10:19:17;;;;;;;7.80;2.40;;;;;;;39.31;14.55;95035.09;5118184;28;20043;-62
2021/05/24 10:21:46;;;;;;;7.40;2.67;;;;;;;38.97;15.41;95034.13;5117858;28;20047;-62
2021/05/24 10:24:14;;;;;;;6.65;2.25;;;;;;;38.95;15.54;95031.09;5105010;28;20056;-62
2021/05/24 10:26:43;;;;;;;6.43;2.22;;;;;;;38.66;14.21;95030.75;5082145;28;20466;-71
2021/05/24 10:29:11;;;;;;;6.85;2.65;;;;;;;39.27;13.70;95034.47;5104275;28;20072;-60
2021/05/24 10:31:39;;;;;;;6.55;2.50;;;;;;;38.84;15.07;94998.00;5059622;28;20049;-68
2021/05/24 10:34:15;;;;;;;6.53;2.30;;;;;;;39.99;14.27;95021.91;5077544;28;20044;-67
2021/05/24 10:36:44;;;;;;;4.55;2.10;;;;;;;39.94;14.34;95025.25;5081694;28;20347;-67
2021/05/24 10:39:25;;;;;;;20.45;18.45;;;;;;;39.64;15.48;95019.56;5097738;28;20040;-61
2021/05/24 10:41:55;;;;;;;;;;;;;;;39.63;15.43;95017.28;5098248;28;20055;-64
2021/05/24 10:44:43;;;;;;;8.10;5.30;;;;;;;39.52;14.89;95022.47;5097870;28;20007;-61
2021/05/24 10:47:23;;;;;;;6.93;2.88;;;;;;;39.41;14.48;95017.44;5109638;28;20055;-65
2021/05/24 10:50:02;;;;;;;5.60;2.70;;;;;;;39.51;14.64;95021.69;5117614;28;20370;-62
2021/05/24 10:52:38;;;;;;;5.03;2.30;;;;;;;39.14;14.73;95013.53;5117540;28;20047;-62
2021/05/24 10:55:27;;;;;;;5.13;2.95;;;;;;;40.24;15.05;95012.53;5117690;28;20048;-65
2021/05/24 10:58:01;;;;;;;11.60;3.33;;;;;;;40.39;13.49;95004.41;5101645;28;20052;-63
2021/05/24 11:00:46;;;;;;;6.00;2.30;;;;;;;40.18;14.04;95006.16;5097416;28;20043;-65
2021/05/24 11:03:14;;;;;;;5.65;2.28;;;;;;;39.89;13.41;95012.19;5117914;28;20047;-67
2021/05/24 11:05:41;;;;;;;7.07;2.50;;;;;;;39.59;14.56;95009.25;5086608;28;20044;-65
2021/05/24 11:08:08;;;;;;;5.88;2.03;;;;;;;40.01;13.89;95006.53;5091797;28;20055;-66
2021/05/24 11:10:46;;;;;;;5.57;2.33;;;;;;;39.86;14.14;95007.66;5096959;28;20051;-66
2021/05/24 11:13:17;;;;;;;6.75;2.30;;;;;;;39.52;14.02;95003.31;5097040;28;20048;-67
2021/05/24 11:15:45;;;;;;;;;;;;;;;39.76;13.21;95004.16;5097636;28;20450;-62
2021/05/24 11:18:16;;;;;;;6.90;2.08;;;;;;;40.11;12.89;95009.25;5100527;28;19919;-70
2021/05/24 11:20:52;;;;;;;10.05;5.95;;;;;;;40.26;12.89;95008.09;5100837;28;20413;-67
2021/05/24 11:26:29;;;;;;;5.32;3.08;;;;;;;39.19;13.37;94994.97;5117147;28;20047;-62
2021/05/24 11:28:59;;;;;;;8.00;2.40;;;;;;;39.89;12.65;94998.50;5096512;28;20063;-69
2021/05/24 11:31:32;;;;;;;5.65;2.53;;;;;;;39.89;12.34;94993.03;5116911;28;20054;-64
2021/05/24 11:34:00;;;;;;;7.50;2.35;;;;;;;40.76;11.00;94996.72;5084791;28;20048;-69
2021/05/24 11:36:39;;;;;;;4.43;2.20;;;;;;;40.53;11.28;94985.31;5059008;28;20049;-70
2021/05/24 11:39:07;;;;;;;6.50;2.50;;;;;;;40.27;12.37;94976.00;5115968;28;20039;-64
2021/05/24 11:41:35;;;;;;;7.43;2.60;;;;;;;40.06;12.64;94978.53;5116811;28;20051;-64
2021/05/24 11:44:03;;;;;;;9.40;2.63;;;;;;;40.41;12.93;94969.88;5083826;28;20044;-67
2021/05/24 11:46:47;;;;;;;7.85;2.80;;;;;;;39.89;13.06;94976.63;5088841;28;20048;-62